Last 7 Days

Abernathy 1

Hourly Data | America/Los_Angeles
as of 8/12/22 6:01 AM PDT
Date & Time Temp (°F) RH (%) Dew Pt (°F) Wind Spd (mph) Wind Dir (°) Wind Gust (mph) Wind Gst Dir (°) Latest Rain (In) Daily Rain (In) Daily Min Temp (°F) Daily Max Temp (°F)
8/12/22 - 0600 58.4 87 54.7 7.6 WSW | 254 13.2 WSW | 256 0.00 0.00 57.9 60.9
8/12/22 - 0500 58.6 88 54.9 7.7 WSW | 247 14.0 WSW | 251 0.00 0.00 58.5 60.9
8/12/22 - 0400 59.1 86 55.0 5.7 WSW | 247 13.6 WSW | 244 0.00 0.00 58.5 60.9
8/12/22 - 0300 60.0 84 55.3 9.6 WSW | 249 19.1 WSW | 246 0.00 0.00 59.6 60.9
8/12/22 - 0200 60.6 82 55.0 5.6 WSW | 254 12.5 WSW | 246 0.00 0.00 60.2 60.9
8/12/22 - 0100 61.3 79 54.9 6.0 W | 260 16.1 WSW | 242 0.00 0.00 59.6 86.9
8/12/22 - 0000 61.3 77 54.0 9.7 WSW | 242 17.3 WSW | 246 0.00 0.00 59.6 86.9
8/11/22 - 2300 61.5 77 54.1 8.2 WSW | 237 14.3 WSW | 246 0.00 0.00 59.6 86.9
8/11/22 - 2200 63.4 72 54.0 8.2 WSW | 242 15.4 SW | 226 0.00 0.00 59.6 86.9
8/11/22 - 2100 67.3 60 52.8 7.8 W | 260 17.0 WSW | 251 0.00 0.00 59.6 86.9
8/11/22 - 2000 72.1 50 52.2 9.2 W | 271 18.2 W | 272 0.00 0.00 59.6 86.9
8/11/22 - 1900 78.8 38 51.2 9.1 W | 274 21.0 W | 266 0.00 0.00 59.6 86.9
8/11/22 - 1800 83.8 34 52.2 10.2 W | 259 19.3 WSW | 243 0.00 0.00 59.6 86.9
8/11/22 - 1700 84.4 36 54.3 12.6 WSW | 258 20.7 WSW | 258 0.00 0.00 59.6 86.9
8/11/22 - 1600 86.3 36 56.2 11.8 WSW | 256 19.4 W | 270 0.00 0.00 59.6 86.9
8/11/22 - 1500 86.2 37 56.7 10.8 WSW | 251 17.8 WSW | 249 0.00 0.00 59.6 86.6
8/11/22 - 1400 85.0 39 57.0 10.1 WSW | 244 17.3 WSW | 256 0.00 0.00 59.6 85.9
8/11/22 - 1300 82.8 41 56.8 10.3 WSW | 244 17.5 WSW | 253 0.00 0.00 59.6 84.0
8/11/22 - 1200 79.8 46 57.4 9.9 WSW | 248 16.9 WSW | 249 0.00 0.00 59.6 81.9
8/11/22 - 1100 75.4 54 57.4 10.5 WSW | 247 17.3 WSW | 258 0.00 0.00 59.6 77.5
8/11/22 - 1000 71.2 61 56.9 10.1 WSW | 244 16.7 WSW | 241 0.00 0.00 59.6 73.1
8/11/22 - 0900 66.5 71 56.8 9.3 WSW | 247 15.7 WSW | 250 0.00 0.00 59.6 69.6
8/11/22 - 0800 61.8 82 56.1 9.8 WSW | 258 16.3 W | 270 0.00 0.00 59.6 63.9
8/11/22 - 0700 59.9 87 56.0 8.0 W | 259 15.8 W | 273 0.00 0.00 59.6 61.7
8/11/22 - 0600 60.5 87 56.7 7.1 W | 263 14.5 W | 267 0.00 0.00 60.1 61.7
8/11/22 - 0500 61.0 86 57.0 7.3 W | 269 14.7 W | 273 0.00 0.00 60.8 61.7
8/11/22 - 0400 61.3 86 57.1 7.8 WSW | 245 14.8 WSW | 252 0.00 0.00 61.0 61.7
8/11/22 - 0300 61.3 86 57.0 6.6 SW | 234 14.0 WSW | 250 0.00 0.00 61.1 61.7
8/11/22 - 0200 61.3 84 56.6 6.8 SW | 236 14.5 WSW | 244 0.00 0.00 61.1 61.7
8/11/22 - 0100 62.0 82 56.5 8.6 WSW | 242 14.7 SW | 233 0.00 0.00 56.3 87.2
8/11/22 - 0000 62.5 80 56.3 8.7 WSW | 239 15.8 SW | 235 0.00 0.00 56.3 87.2
8/10/22 - 2300 64.1 75 55.9 6.5 SW | 225 14.2 SW | 218 0.00 0.00 56.3 87.2
8/10/22 - 2200 66.5 67 55.3 7.1 SW | 236 13.8 WSW | 250 0.00 0.00 56.3 87.2
8/10/22 - 2100 69.2 60 54.9 8.0 WSW | 250 14.0 WSW | 256 0.00 0.00 56.3 87.2
8/10/22 - 2000 75.1 48 54.1 8.2 W | 267 16.4 WSW | 255 0.00 0.00 56.3 87.2
8/10/22 - 1900 80.0 39 53.0 9.5 W | 263 17.8 W | 272 0.00 0.00 56.3 87.2
8/10/22 - 1800 83.0 38 54.7 10.6 W | 261 20.0 WSW | 253 0.00 0.00 56.3 87.2
8/10/22 - 1700 84.8 37 56.0 10.8 WSW | 254 22.2 WSW | 243 0.00 0.00 56.3 87.2
8/10/22 - 1600 86.0 35 55.5 9.8 WSW | 255 18.2 W | 261 0.00 0.00 56.3 87.2
8/10/22 - 1500 85.5 36 55.8 8.7 WSW | 247 16.8 WSW | 252 0.00 0.00 56.3 86.4
8/10/22 - 1400 83.8 39 56.2 9.1 WSW | 246 17.4 WSW | 240 0.00 0.00 56.3 84.9
8/10/22 - 1300 82.1 42 57.1 9.1 WSW | 243 17.4 WSW | 251 0.00 0.00 56.3 83.0
8/10/22 - 1200 80.1 44 56.4 9.1 WSW | 241 15.6 SW | 235 0.00 0.00 56.3 81.4
8/10/22 - 1100 76.2 50 56.1 8.0 WSW | 250 15.7 WSW | 256 0.00 0.00 56.3 78.3
8/10/22 - 1000 70.8 60 56.1 8.2 WSW | 248 14.3 W | 260 0.00 0.00 56.3 73.5
8/10/22 - 0900 65.2 72 55.9 8.3 WSW | 251 14.1 WSW | 258 0.00 0.00 56.3 67.7
8/10/22 - 0800 59.6 86 55.3 6.9 WSW | 242 12.3 WSW | 249 0.00 0.00 56.3 62.9
8/10/22 - 0700 56.9 90 54.0 7.5 WSW | 241 13.7 SW | 227 0.00 0.00 56.3 60.2
8/10/22 - 0600 57.0 90 54.1 7.1 WSW | 238 12.5 SW | 229 0.00 0.00 56.3 60.2
8/10/22 - 0500 56.5 89 53.4 4.5 SW | 229 8.4 SW | 217 0.00 0.00 56.3 60.2
8/10/22 - 0400 57.7 88 54.3 3.9 WSW | 246 10.7 WNW | 289 0.00 0.00 56.8 60.2
8/10/22 - 0300 58.6 86 54.6 4.8 WSW | 254 11.8 W | 259 0.00 0.00 58.1 60.2
8/10/22 - 0200 59.8 85 55.2 7.8 W | 260 14.6 W | 267 0.00 0.00 59.4 60.2
8/10/22 - 0100 60.8 81 55.0 7.8 W | 266 15.2 WSW | 254 0.00 0.00 57.1 84.6
8/10/22 - 0000 61.6 79 55.0 7.0 W | 268 15.1 W | 259 0.00 0.00 57.1 84.6
8/9/22 - 2300 62.3 76 54.7 8.4 WSW | 247 15.5 WSW | 248 0.00 0.00 57.1 84.6
8/9/22 - 2200 63.8 72 54.7 9.6 WSW | 247 16.4 W | 265 0.00 0.00 57.1 84.6
8/9/22 - 2100 66.2 65 54.1 9.6 WSW | 244 16.9 WSW | 239 0.00 0.00 57.1 84.6
8/9/22 - 2000 71.0 53 53.2 9.4 WSW | 250 18.9 WSW | 242 0.00 0.00 57.1 84.6
8/9/22 - 1900 76.2 43 52.3 11.6 WSW | 257 20.6 W | 274 0.00 0.00 57.1 84.6
8/9/22 - 1800 79.4 38 51.8 12.2 WSW | 255 22.0 W | 266 0.00 0.00 57.1 84.6
8/9/22 - 1700 82.5 34 51.2 12.4 W | 262 21.5 SW | 233 0.00 0.00 57.1 84.6
8/9/22 - 1600 83.8 35 53.4 10.8 WSW | 254 21.2 SW | 235 0.00 0.00 57.1 84.6
8/9/22 - 1500 83.4 36 53.8 9.8 WSW | 256 18.3 WSW | 250 0.00 0.00 57.1 84.1
8/9/22 - 1400 82.2 39 55.1 10.5 WSW | 247 18.0 WSW | 245 0.00 0.00 57.1 82.8
8/9/22 - 1300 81.4 41 55.8 10.4 WSW | 250 18.2 WSW | 243 0.00 0.00 57.1 81.9
8/9/22 - 1200 79.9 41 54.4 9.9 WSW | 254 18.3 WSW | 239 0.00 0.00 57.1 81.5
8/9/22 - 1100 75.0 49 54.6 10.2 WSW | 256 17.8 WSW | 255 0.00 0.00 57.1 78.2
8/9/22 - 1000 70.3 60 55.9 10.4 WSW | 251 18.9 WSW | 253 0.00 0.00 57.1 73.2
8/9/22 - 0900 65.1 70 55.3 10.1 WSW | 241 17.0 WSW | 254 0.00 0.00 57.1 68.0
8/9/22 - 0800 60.0 81 54.2 8.3 WSW | 241 14.9 WSW | 250 0.00 0.00 57.1 62.8
8/9/22 - 0700 57.5 86 53.3 7.9 WSW | 238 14.2 WSW | 244 0.00 0.00 57.1 60.9
8/9/22 - 0600 58.4 84 53.6 7.0 SW | 222 15.6 SW | 226 0.00 0.00 58.2 60.9
8/9/22 - 0500 59.2 82 53.8 6.6 SW | 232 11.9 W | 276 0.00 0.00 58.8 60.9
8/9/22 - 0400 59.9 81 54.0 8.2 WSW | 256 16.6 W | 264 0.00 0.00 59.7 60.9
8/9/22 - 0300 60.5 80 54.2 7.9 WSW | 254 15.5 W | 264 0.00 0.00 60.2 60.9
8/9/22 - 0200 60.7 80 54.6 10.4 WSW | 254 19.3 WSW | 249 0.00 0.00 60.4 60.9
8/9/22 - 0100 61.4 78 54.4 10.1 WSW | 252 18.8 W | 262 0.00 0.00 56.6 85.0
8/9/22 - 0000 62.5 75 54.3 12.0 W | 259 19.6 W | 265 0.00 0.00 56.6 85.0
8/8/22 - 2300 63.6 71 54.1 11.2 WSW | 258 19.5 W | 272 0.00 0.00 56.6 85.0
8/8/22 - 2200 64.8 68 54.2 11.6 WSW | 256 21.3 WSW | 247 0.00 0.00 56.6 85.0
8/8/22 - 2100 67.4 61 53.4 12.1 WSW | 254 21.1 W | 270 0.00 0.00 56.6 85.0
8/8/22 - 2000 73.0 49 52.4 11.0 W | 260 19.8 WSW | 248 0.00 0.00 56.6 85.0
8/8/22 - 1900 78.9 39 51.9 10.2 W | 268 18.5 W | 259 0.00 0.00 56.6 85.0
8/8/22 - 1800 82.4 36 52.9 10.2 W | 266 19.2 WSW | 246 0.00 0.00 56.6 85.0
8/8/22 - 1700 84.0 33 52.1 12.7 WSW | 254 22.3 WSW | 242 0.00 0.00 56.6 85.0
8/8/22 - 1600 84.4 35 53.8 11.9 WSW | 255 19.3 WSW | 242 0.00 0.00 56.6 85.0
8/8/22 - 1500 84.4 35 54.0 11.9 WSW | 254 20.3 WSW | 251 0.00 0.00 56.6 84.9
8/8/22 - 1400 83.5 37 54.7 11.2 WSW | 250 18.9 WSW | 251 0.00 0.00 56.6 84.5
8/8/22 - 1300 81.8 41 55.8 11.1 WSW | 250 20.2 W | 266 0.00 0.00 56.6 82.5
8/8/22 - 1200 79.2 44 55.8 11.3 WSW | 246 19.3 SW | 228 0.00 0.00 56.6 81.0
8/8/22 - 1100 75.4 51 55.8 10.9 WSW | 249 17.9 WSW | 241 0.00 0.00 56.6 77.3
8/8/22 - 1000 70.6 59 55.8 10.5 WSW | 245 18.1 WSW | 251 0.00 0.00 56.6 73.5
8/8/22 - 0900 66.1 68 55.4 8.2 WSW | 238 13.8 WSW | 243 0.00 0.00 56.6 68.9
8/8/22 - 0800 60.0 81 54.2 7.6 WSW | 239 12.8 WSW | 243 0.00 0.00 56.6 63.1
8/8/22 - 0700 56.7 87 52.8 8.0 WSW | 239 12.4 W | 259 0.00 0.00 56.6 59.9
8/8/22 - 0600 57.3 86 53.1 7.1 WSW | 239 12.6 SW | 235 0.00 0.00 56.8 59.9
8/8/22 - 0500 57.5 86 53.4 6.7 WSW | 237 11.8 WSW | 241 0.00 0.00 57.2 59.9
8/8/22 - 0400 58.0 86 53.8 9.1 WSW | 238 16.4 SW | 226 0.00 0.00 57.6 59.9
8/8/22 - 0300 58.7 85 54.1 9.8 WSW | 244 18.3 W | 261 0.00 0.00 58.6 59.9
8/8/22 - 0200 59.4 83 54.2 9.1 WSW | 238 15.4 SW | 235 0.00 0.00 59.1 59.9
8/8/22 - 0100 60.6 79 54.2 9.5 WSW | 242 17.6 W | 262 0.00 0.00 58.0 84.6
8/8/22 - 0000 60.8 79 54.3 10.0 WSW | 241 16.5 W | 259 0.00 0.00 58.0 84.6
8/7/22 - 2300 61.7 76 54.1 9.5 WSW | 238 17.5 SW | 234 0.00 0.00 58.0 84.6
8/7/22 - 2200 63.2 70 53.4 8.3 WSW | 249 16.5 SW | 226 0.00 0.00 58.0 84.6
8/7/22 - 2100 66.4 61 52.7 6.4 W | 269 12.9 WSW | 250 0.00 0.00 58.0 84.6
8/7/22 - 2000 71.9 50 52.3 8.2 W | 275 16.5 WNW | 287 0.00 0.00 58.0 84.6
8/7/22 - 1900 78.0 40 51.7 10.6 W | 269 22.7 W | 263 0.00 0.00 58.0 84.6
8/7/22 - 1800 81.9 36 52.4 13.0 WSW | 256 21.9 W | 262 0.00 0.00 58.0 84.6
8/7/22 - 1700 83.4 38 55.0 11.9 WSW | 254 20.0 W | 267 0.00 0.00 58.0 84.6
8/7/22 - 1600 83.7 38 55.7 11.6 WSW | 258 20.0 W | 266 0.00 0.00 58.0 84.6
8/7/22 - 1500 84.1 38 55.5 11.5 WSW | 255 19.1 WSW | 258 0.00 0.00 58.0 84.6
8/7/22 - 1400 83.3 38 55.1 11.1 WSW | 250 18.8 SW | 236 0.00 0.00 58.0 84.6
8/7/22 - 1300 81.5 39 54.2 10.5 WSW | 252 17.4 WSW | 241 0.00 0.00 58.0 82.2
8/7/22 - 1200 78.8 42 54.1 10.2 WSW | 248 17.6 WSW | 245 0.00 0.00 58.0 80.6
8/7/22 - 1100 74.8 49 54.7 9.9 WSW | 252 16.9 WSW | 244 0.00 0.00 58.0 77.2
8/7/22 - 1000 70.4 57 54.5 9.1 WSW | 252 17.3 W | 267 0.00 0.00 58.0 71.8
8/7/22 - 0900 65.7 67 54.4 8.1 WSW | 258 13.6 SW | 236 0.00 0.00 58.0 68.2
8/7/22 - 0800 61.0 77 53.7 8.2 W | 263 15.4 W | 270 0.00 0.00 58.0 63.1
8/7/22 - 0700 58.3 83 53.2 8.6 WSW | 256 15.5 W | 266 0.00 0.00 58.0 61.1
8/7/22 - 0600 58.1 83 53.0 8.0 WSW | 248 15.6 W | 261 0.00 0.00 58.0 61.1
8/7/22 - 0500 58.5 82 52.9 7.7 WSW | 242 13.2 WSW | 238 0.00 0.00 58.0 61.1
8/7/22 - 0400 59.7 77 52.4 7.3 WSW | 249 13.3 SW | 216 0.00 0.00 59.2 61.1
8/7/22 - 0300 60.6 74 52.2 6.9 WSW | 247 12.2 WSW | 240 0.00 0.00 60.2 61.1
8/7/22 - 0200 60.8 74 52.4 8.5 WSW | 246 14.6 W | 271 0.00 0.00 60.5 61.1
8/7/22 - 0100 61.6 72 52.4 7.5 WSW | 239 16.4 SW | 236 0.00 0.00 60.3 83.2
8/7/22 - 0000 62.6 70 52.5 7.1 SW | 233 13.1 SW | 223 0.00 0.00 60.3 83.2
8/6/22 - 2300 63.4 69 53.0 8.0 WSW | 239 14.6 WSW | 241 0.00 0.00 60.3 83.2
8/6/22 - 2200 65.0 66 53.2 7.3 SW | 235 13.5 WSW | 253 0.00 0.00 60.3 83.2
8/6/22 - 2100 67.9 59 53.0 8.5 WSW | 247 15.6 WSW | 239 0.00 0.00 60.3 83.2
8/6/22 - 2000 73.5 49 53.3 8.9 W | 262 17.9 SW | 231 0.00 0.00 60.3 83.2
8/6/22 - 1900 77.9 46 55.4 10.1 W | 264 19.4 W | 259 0.00 0.00 60.3 83.2
8/6/22 - 1800 81.0 42 55.8 10.7 W | 264 20.2 WSW | 250 0.00 0.00 60.3 83.2
8/6/22 - 1700 82.6 41 56.6 10.4 W | 261 18.3 W | 267 0.00 0.00 60.3 83.2
8/6/22 - 1600 82.5 42 57.2 11.3 WSW | 253 19.8 SW | 231 0.00 0.00 60.3 83.2
8/6/22 - 1500 81.5 44 57.5 11.4 WSW | 250 19.2 WSW | 258 0.00 0.00 60.3 82.2
8/6/22 - 1400 80.6 45 57.3 10.7 WSW | 251 17.4 WSW | 244 0.00 0.00 60.3 81.5
8/6/22 - 1300 78.9 47 57.2 10.7 WSW | 245 17.8 SW | 234 0.00 0.00 60.3 80.1
8/6/22 - 1200 77.4 49 56.5 10.3 WSW | 246 16.8 WSW | 250 0.00 0.00 60.3 78.6
8/6/22 - 1100 74.4 54 56.6 9.6 WSW | 246 17.3 W | 264 0.00 0.00 60.3 75.5
8/6/22 - 1000 71.5 59 56.4 8.8 WSW | 252 15.6 W | 260 0.00 0.00 60.3 72.9
8/6/22 - 0900 68.1 65 55.9 5.7 WNW | 282 11.0 WNW | 292 0.00 0.00 60.3 70.5
8/6/22 - 0800 63.8 74 55.4 6.7 W | 263 12.3 WSW | 253 0.00 0.00 60.3 66.3
8/6/22 - 0700 60.8 79 54.4 7.2 W | 266 15.1 W | 260 0.00 0.00 60.3 62.9
8/6/22 - 0600 60.5 79 54.0 5.7 W | 266 12.4 W | 269 0.00 0.00 60.3 62.9
8/6/22 - 0500 61.1 78 54.4 6.8 W | 266 12.7 WSW | 249 0.00 0.00 60.9 62.9
8/6/22 - 0400 61.5 79 54.8 7.4 W | 261 15.0 WSW | 252 0.00 0.00 61.3 62.9
8/6/22 - 0300 62.0 78 55.1 6.5 W | 281 12.9 NNW | 339 0.00 0.00 61.5 62.9
8/6/22 - 0200 62.7 78 55.6 7.3 W | 279 15.1 W | 275 0.00 0.00 62.3 62.9
8/6/22 - 0100 62.3 79 55.8 6.1 W | 267 14.2 WSW | 247 0.00 0.00 60.1 83.9
8/6/22 - 0000 62.4 79 55.8 7.8 W | 260 15.4 WSW | 244 0.00 0.00 60.1 83.9
8/5/22 - 2300 62.4 80 56.2 7.3 WSW | 243 15.1 WSW | 249 0.00 0.00 60.1 83.9
8/5/22 - 2200 63.0 79 56.3 7.7 WSW | 242 16.3 WSW | 245 0.00 0.00 60.1 83.9
8/5/22 - 2100 65.4 73 56.4 8.5 WSW | 250 15.9 WSW | 241 0.00 0.00 60.1 83.9
8/5/22 - 2000 71.8 60 56.9 7.0 WSW | 254 13.2 WSW | 255 0.00 0.00 60.1 83.9
8/5/22 - 1900 77.6 51 57.9 7.4 WSW | 239 14.4 SW | 221 0.00 0.00 60.1 83.9
8/5/22 - 1800 80.9 47 58.9 8.3 W | 260 17.1 W | 268 0.00 0.00 60.1 83.9
8/5/22 - 1700 82.1 46 59.4 9.3 W | 264 18.5 WSW | 237 0.00 0.00 60.1 83.9
8/5/22 - 1600 82.2 46 59.4 10.0 WSW | 254 18.5 WSW | 254 0.00 0.00 60.1 83.9
8/5/22 - 1500 81.8 47 59.4 10.3 WSW | 255 17.8 SW | 230 0.00 0.00 60.1 83.4
8/5/22 - 1400 82.5 47 60.2 9.1 WSW | 241 15.0 WSW | 237 0.00 0.00 60.1 83.4
8/5/22 - 1300 81.0 48 59.5 8.4 WSW | 240 17.1 SSW | 205 0.00 0.00 60.1 82.2
8/5/22 - 1200 77.5 51 58.0 8.9 WSW | 245 18.6 W | 272 0.00 0.00 60.1 80.0
8/5/22 - 1100 75.0 53 56.7 9.5 WSW | 245 16.4 SW | 235 0.00 0.00 60.1 76.6
8/5/22 - 1000 70.7 58 55.4 9.4 WSW | 252 16.1 W | 266 0.00 0.00 60.1 72.9
8/5/22 - 0900 67.3 64 54.9 8.3 WSW | 258 15.4 SW | 236 0.00 0.00 60.1 69.2
8/5/22 - 0800 62.8 73 54.2 7.1 W | 270 14.0 WSW | 256 0.00 0.00 60.1 65.1
8/5/22 - 0700 60.7 77 53.6 6.9 W | 276 16.4 WSW | 258 0.00 0.00 60.1 62.1
Max 86.3 90 60.2 13.0 - 22.7 - 0.00 0.00 62.3 87.2
Avg 69.8 62 54.9 8.9 - 16.5 - 0.00 - - -
Min 56.5 33 51.2 3.9 - 8.4 - 0.00 0.00 56.3 59.9
Total - - - - - - - 0.00 - - -
Tip: Bookmark this page for easy future reference